Time;durP1;ratioP1;P1;durP2;ratioP2;P2;SDS_P1;SDS_P2;PMS_P1;PMS_P2;Temp;Humidity;BMP_temperature;BMP_pressure;BME280_temperature;BME280_humidity;BME280_pressure;Samples;Min_cycle;Max_cycle;Signal;HPM_P1;HPM_P2
2022/05/21 00:02:25;;;;;;;19.53;18.43;;;;;;;;;;5017704;28;20453;-87
2022/05/21 00:04:53;;;;;;;19.03;18.03;;;;;;;;;;5017406;28;20449;-86
2022/05/21 00:07:20;;;;;;;20.57;19.30;;;;;;;;;;5017338;28;20416;-87
2022/05/21 00:09:47;;;;;;;18.97;17.93;;;;;;;;;;5017453;28;20459;-87
2022/05/21 00:12:15;;;;;;;19.93;18.83;;;;;;;;;;5017228;28;20412;-88
2022/05/21 00:14:44;;;;;;;20.23;18.73;;;;;;;;;;5017727;28;20423;-87
2022/05/21 00:17:11;;;;;;;19.87;18.77;;;;;;;;;;4999692;28;20450;-87
2022/05/21 00:19:39;;;;;;;20.07;18.83;;;;;;;;;;5017542;28;20607;-87
2022/05/21 00:22:06;;;;;;;18.97;17.87;;;;;;;;;;5031809;28;20465;-87
2022/05/21 00:24:34;;;;;;;20.80;19.40;;;;;;;;;;5035708;28;20449;-87
2022/05/21 00:27:01;;;;;;;19.30;18.30;;;;;;;;;;5036456;28;20419;-86
2022/05/21 00:29:29;;;;;;;20.30;19.20;;;;;;;;;;5019097;28;20465;-87
2022/05/21 00:31:58;;;;;;;19.33;18.23;;;;;;;;;;5036787;28;20807;-87
2022/05/21 00:34:25;;;;;;;20.70;19.50;;;;;;;;;;5036850;28;20423;-86
2022/05/21 00:36:53;;;;;;;20.20;19.10;;;;;;;;;;5036742;28;20423;-87
2022/05/21 00:39:20;;;;;;;21.07;19.83;;;;;;;;;;5036430;28;20460;-87
2022/05/21 00:41:48;;;;;;;21.10;19.80;;;;;;;;;;5036479;28;20411;-86
2022/05/21 00:44:15;;;;;;;21.20;20.00;;;;;;;;;;5036401;28;20440;-86
2022/05/21 00:46:44;;;;;;;20.33;19.17;;;;;;;;;;5036299;28;20432;-87
2022/05/21 00:49:15;;;;;;;20.83;19.63;;;;;;;;;;5036204;28;20578;-86
2022/05/21 00:51:44;;;;;;;21.57;20.30;;;;;;;;;;5036368;28;20436;-87
2022/05/21 00:54:13;;;;;;;22.00;20.60;;;;;;;;;;5036553;28;20434;-86
2022/05/21 00:56:44;;;;;;;21.20;19.80;;;;;;;;;;5036258;28;20436;-87
2022/05/21 01:01:58;;;;;;;22.00;20.60;;;;;;;;;;5036086;28;20482;-86
2022/05/21 01:04:27;;;;;;;23.67;22.10;;;;;;;;;;5036163;28;20406;-86
2022/05/21 01:06:55;;;;;;;23.50;21.90;;;;;;;;;;5036003;28;20439;-87
2022/05/21 01:09:22;;;;;;;20.53;19.33;;;;;;;;;;5036231;28;20479;-85
2022/05/21 01:11:50;;;;;;;23.80;22.20;;;;;;;;;;5035966;28;20423;-87
2022/05/21 01:14:20;;;;;;;23.30;21.70;;;;;;;;;;5035903;28;20465;-86
2022/05/21 01:16:48;;;;;;;23.33;21.90;;;;;;;;;;5036114;28;20423;-86
2022/05/21 01:19:15;;;;;;;23.50;21.87;;;;;;;;;;5036052;28;20422;-87
2022/05/21 01:21:44;;;;;;;23.00;21.50;;;;;;;;;;5035334;28;20975;-87
2022/05/21 01:24:13;;;;;;;23.97;22.47;;;;;;;;;;5035947;28;20418;-86
2022/05/21 01:26:41;;;;;;;24.40;22.33;;;;;;;;;;5035932;28;20434;-87
2022/05/21 01:29:12;;;;;;;23.73;21.83;;;;;;;;;;5035352;28;20561;-87
2022/05/21 01:31:39;;;;;;;23.70;21.97;;;;;;;;;;5018169;28;20475;-87
2022/05/21 01:34:06;;;;;;;22.40;20.93;;;;;;;;;;5035238;28;20415;-87
2022/05/21 01:36:34;;;;;;;27.37;25.33;;;;;;;;;;5035261;28;20435;-87
2022/05/21 01:39:01;;;;;;;23.00;21.50;;;;;;;;;;5035594;28;20415;-87
2022/05/21 01:41:30;;;;;;;24.60;23.00;;;;;;;;;;5035687;28;20440;-86
2022/05/21 01:46:42;;;;;;;24.67;23.03;;;;;;;;;;5035166;28;20828;-86
2022/05/21 01:49:10;;;;;;;23.53;22.03;;;;;;;;;;5035082;28;20499;-87
2022/05/21 01:51:37;;;;;;;25.03;23.40;;;;;;;;;;5034972;28;20411;-87
2022/05/21 01:54:05;;;;;;;24.13;22.50;;;;;;;;;;5035246;28;20468;-86
2022/05/21 01:56:33;;;;;;;23.43;21.83;;;;;;;;;;5035286;28;20441;-87
2022/05/21 01:59:01;;;;;;;24.77;23.07;;;;;;;;;;5017616;28;20801;-87
2022/05/21 02:01:28;;;;;;;24.30;22.40;;;;;;;;;;5035158;28;20444;-86
2022/05/21 02:03:55;;;;;;;24.30;22.83;;;;;;;;;;5034858;28;20524;-86
2022/05/21 02:06:23;;;;;;;25.50;23.83;;;;;;;;;;5034816;28;20479;-87
2022/05/21 02:08:50;;;;;;;24.27;22.63;;;;;;;;;;5034701;28;20447;-86
2022/05/21 02:11:18;;;;;;;23.80;22.20;;;;;;;;;;5034660;28;20423;-87
2022/05/21 02:13:46;;;;;;;25.13;23.40;;;;;;;;;;5017265;28;20947;-86
2022/05/21 02:16:14;;;;;;;24.60;23.00;;;;;;;;;;5034748;28;20449;-86
2022/05/21 02:18:41;;;;;;;24.63;22.87;;;;;;;;;;5034989;28;20440;-86
2022/05/21 02:21:08;;;;;;;24.47;22.90;;;;;;;;;;5034559;28;20484;-86
2022/05/21 02:23:36;;;;;;;24.73;23.13;;;;;;;;;;5034681;28;20419;-87
2022/05/21 02:26:04;;;;;;;24.03;22.43;;;;;;;;;;5017015;28;20482;-87
2022/05/21 02:28:31;;;;;;;24.87;23.27;;;;;;;;;;5034462;28;20494;-86
2022/05/21 02:31:00;;;;;;;24.73;23.13;;;;;;;;;;5034530;28;20460;-86
2022/05/21 02:33:28;;;;;;;27.13;25.33;;;;;;;;;;5034339;28;20429;-87
2022/05/21 02:35:55;;;;;;;27.73;25.53;;;;;;;;;;5034281;28;20984;-86
2022/05/21 02:41:10;;;;;;;26.07;24.00;;;;;;;;;;5034461;28;20472;-87
2022/05/21 02:43:38;;;;;;;26.23;24.37;;;;;;;;;;5034142;28;20442;-86
2022/05/21 02:46:06;;;;;;;28.10;25.90;;;;;;;;;;5034374;28;20440;-86
2022/05/21 02:48:34;;;;;;;25.33;23.33;;;;;;;;;;5033765;28;20446;-86
2022/05/21 02:51:01;;;;;;;24.40;22.80;;;;;;;;;;5034655;28;20484;-86
2022/05/21 02:53:29;;;;;;;26.33;24.43;;;;;;;;;;5034072;28;20794;-86
2022/05/21 02:55:57;;;;;;;26.60;24.53;;;;;;;;;;5033782;28;20442;-86
2022/05/21 02:58:26;;;;;;;27.23;25.17;;;;;;;;;;5034755;28;20407;-86
2022/05/21 03:00:53;;;;;;;26.77;24.70;;;;;;;;;;5034770;28;20474;-86
2022/05/21 03:03:22;;;;;;;26.80;24.70;;;;;;;;;;5034155;28;20432;-86
2022/05/21 03:05:49;;;;;;;26.30;24.27;;;;;;;;;;5034041;28;20411;-86
2022/05/21 03:11:02;;;;;;;28.07;25.83;;;;;;;;;;5034172;28;20517;-87
2022/05/21 03:13:29;;;;;;;28.40;26.17;;;;;;;;;;5033989;28;20440;-86
2022/05/21 03:15:58;;;;;;;26.93;24.97;;;;;;;;;;5016742;28;20452;-86
2022/05/21 03:18:26;;;;;;;28.47;26.30;;;;;;;;;;5033848;28;20442;-86
2022/05/21 03:20:54;;;;;;;27.37;25.30;;;;;;;;;;5033544;28;20455;-86
2022/05/21 03:23:21;;;;;;;29.27;26.87;;;;;;;;;;5033851;28;20484;-86
2022/05/21 03:25:49;;;;;;;28.63;26.43;;;;;;;;;;5033698;28;20423;-86
2022/05/21 03:28:17;;;;;;;29.80;27.43;;;;;;;;;;5033812;28;20761;-85
2022/05/21 03:30:44;;;;;;;28.97;26.77;;;;;;;;;;5033491;28;20487;-86
2022/05/21 03:33:11;;;;;;;30.57;28.17;;;;;;;;;;5016488;28;20415;-86
2022/05/21 03:35:41;;;;;;;32.50;29.40;;;;;;;;;;5033945;28;20934;-85
2022/05/21 03:38:09;;;;;;;30.63;28.03;;;;;;;;;;5033495;28;20425;-86
2022/05/21 03:40:36;;;;;;;32.17;29.37;;;;;;;;;;5033594;28;20435;-86
2022/05/21 03:43:04;;;;;;;30.87;28.30;;;;;;;;;;5033622;28;20448;-85
2022/05/21 03:45:32;;;;;;;31.00;28.20;;;;;;;;;;5033691;28;21004;-86
2022/05/21 03:47:59;;;;;;;32.07;29.17;;;;;;;;;;5016094;28;20479;-86
2022/05/21 03:50:31;;;;;;;30.67;27.90;;;;;;;;;;5033206;28;20956;-87
2022/05/21 03:53:00;;;;;;;32.00;29.20;;;;;;;;;;5033427;28;20426;-87
2022/05/21 03:55:27;;;;;;;30.37;27.77;;;;;;;;;;5034294;28;20855;-87
2022/05/21 03:57:54;;;;;;;30.87;28.23;;;;;;;;;;5033726;28;20910;-87
2022/05/21 04:00:22;;;;;;;25.60;23.70;;;;;;;;;;5036172;28;20431;-87
2022/05/21 04:02:49;;;;;;;28.87;26.43;;;;;;;;;;5019856;28;20444;-87
2022/05/21 04:05:17;;;;;;;27.50;25.20;;;;;;;;;;5037319;28;20754;-87
2022/05/21 04:07:45;;;;;;;27.93;25.60;;;;;;;;;;5037417;28;20439;-87
2022/05/21 04:10:15;;;;;;;28.47;26.07;;;;;;;;;;5037095;28;20486;-87
2022/05/21 04:12:42;;;;;;;30.90;28.03;;;;;;;;;;5037419;28;20413;-87
2022/05/21 04:15:10;;;;;;;26.00;23.97;;;;;;;;;;5037295;28;20471;-87
2022/05/21 04:17:38;;;;;;;29.00;26.40;;;;;;;;;;5037108;28;20414;-87
2022/05/21 04:20:08;;;;;;;30.83;28.00;;;;;;;;;;5036869;28;20451;-88
2022/05/21 04:22:36;;;;;;;31.00;28.47;;;;;;;;;;5036966;28;20503;-87
2022/05/21 04:25:06;;;;;;;30.37;27.87;;;;;;;;;;5037079;28;20456;-88
2022/05/21 04:27:35;;;;;;;30.00;27.40;;;;;;;;;;5036416;28;20473;-87
2022/05/21 04:30:02;;;;;;;31.80;29.10;;;;;;;;;;5036229;28;20538;-87
2022/05/21 04:32:30;;;;;;;32.40;29.50;;;;;;;;;;5036715;28;20423;-87
2022/05/21 04:34:57;;;;;;;32.57;29.77;;;;;;;;;;5036756;28;20447;-87
2022/05/21 04:37:25;;;;;;;32.80;30.00;;;;;;;;;;5036405;28;20411;-87
2022/05/21 04:39:52;;;;;;;31.80;29.10;;;;;;;;;;5036455;28;20477;-87
2022/05/21 04:42:19;;;;;;;32.67;29.80;;;;;;;;;;5036706;28;20431;-87
2022/05/21 04:44:48;;;;;;;31.10;28.67;;;;;;;;;;5036716;28;20436;-87
2022/05/21 04:47:16;;;;;;;26.17;24.17;;;;;;;;;;5036450;28;20538;-88
2022/05/21 04:49:43;;;;;;;30.80;28.30;;;;;;;;;;5036116;28;20466;-87
2022/05/21 04:52:10;;;;;;;28.27;25.90;;;;;;;;;;5036390;28;20457;-87
2022/05/21 04:54:38;;;;;;;32.30;29.70;;;;;;;;;;5036912;28;20427;-88
2022/05/21 04:57:06;;;;;;;30.37;27.67;;;;;;;;;;5036082;28;20441;-87
2022/05/21 04:59:34;;;;;;;32.63;29.97;;;;;;;;;;5036329;28;20460;-87
2022/05/21 05:02:02;;;;;;;28.20;25.87;;;;;;;;;;5036291;28;20460;-87
2022/05/21 05:04:30;;;;;;;29.47;27.00;;;;;;;;;;5036282;28;20452;-88
2022/05/21 05:06:57;;;;;;;32.50;29.37;;;;;;;;;;5035991;28;20460;-88
2022/05/21 05:09:25;;;;;;;30.03;27.60;;;;;;;;;;5035995;28;20436;-86
2022/05/21 05:11:52;;;;;;;33.70;30.60;;;;;;;;;;5017706;28;20429;-87
2022/05/21 05:14:20;;;;;;;35.93;32.70;;;;;;;;;;5036011;28;20444;-87
2022/05/21 05:16:47;;;;;;;32.37;29.87;;;;;;;;;;5036003;28;20415;-87
2022/05/21 05:19:16;;;;;;;29.27;26.80;;;;;;;;;;5018378;28;20457;-87
2022/05/21 05:21:44;;;;;;;29.33;27.03;;;;;;;;;;5017946;28;20450;-88
2022/05/21 05:24:11;;;;;;;31.50;29.03;;;;;;;;;;5036063;28;20418;-87
2022/05/21 05:26:39;;;;;;;28.97;26.73;;;;;;;;;;5035991;28;20440;-87
2022/05/21 05:29:06;;;;;;;31.10;28.63;;;;;;;;;;5036305;28;20502;-87
2022/05/21 05:31:34;;;;;;;27.80;25.70;;;;;;;;;;5035765;28;20498;-87
2022/05/21 05:34:01;;;;;;;30.27;27.87;;;;;;;;;;5018460;28;20436;-87
2022/05/21 05:36:30;;;;;;;30.77;28.23;;;;;;;;;;5035626;28;20896;-86
2022/05/21 05:38:59;;;;;;;28.30;26.30;;;;;;;;;;5035522;28;20432;-87
2022/05/21 05:41:27;;;;;;;29.80;27.50;;;;;;;;;;5035504;28;20464;-87
2022/05/21 05:43:54;;;;;;;29.23;26.93;;;;;;;;;;5035978;28;20437;-86
2022/05/21 05:46:22;;;;;;;29.67;27.20;;;;;;;;;;5017991;28;20418;-86
2022/05/21 05:48:50;;;;;;;31.93;29.07;;;;;;;;;;5035146;28;21009;-86
2022/05/21 05:51:17;;;;;;;31.77;28.90;;;;;;;;;;5034978;28;20959;-86
2022/05/21 05:53:47;;;;;;;30.63;27.90;;;;;;;;;;5035321;28;20500;-87
2022/05/21 05:56:15;;;;;;;28.70;26.30;;;;;;;;;;5035635;28;20427;-86
2022/05/21 06:01:27;;;;;;;28.57;26.10;;;;;;;;;;5035058;28;20398;-87
2022/05/21 06:03:55;;;;;;;29.90;27.37;;;;;;;;;;5034993;28;20430;-86
2022/05/21 06:06:22;;;;;;;28.27;25.90;;;;;;;;;;5017767;28;20420;-87
2022/05/21 06:08:51;;;;;;;29.77;27.47;;;;;;;;;;5017859;28;20415;-86
2022/05/21 06:11:20;;;;;;;31.17;28.70;;;;;;;;;;5034852;28;20488;-86
2022/05/21 06:13:47;;;;;;;30.67;28.17;;;;;;;;;;5034659;28;20518;-87
2022/05/21 06:16:15;;;;;;;28.67;26.60;;;;;;;;;;5034700;28;20407;-88
2022/05/21 06:18:42;;;;;;;25.50;23.47;;;;;;;;;;5034808;28;20440;-88
2022/05/21 06:21:10;;;;;;;30.77;28.50;;;;;;;;;;5034441;28;20455;-88
2022/05/21 06:23:38;;;;;;;29.87;27.57;;;;;;;;;;5033794;28;20896;-87
2022/05/21 06:26:09;;;;;;;30.97;28.67;;;;;;;;;;5034492;28;20451;-88
2022/05/21 06:28:37;;;;;;;32.80;30.10;;;;;;;;;;5034575;28;20444;-89
2022/05/21 06:31:05;;;;;;;32.67;29.80;;;;;;;;;;5034284;28;20977;-88
2022/05/21 06:33:32;;;;;;;30.07;27.67;;;;;;;;;;5034332;28;20429;-91
2022/05/21 06:36:04;;;;;;;29.07;26.57;;;;;;;;;;5034442;28;20902;-92
2022/05/21 06:38:31;;;;;;;25.10;23.10;;;;;;;;;;5034530;28;20446;-91
2022/05/21 06:40:58;;;;;;;31.13;28.63;;;;;;;;;;5034231;28;20949;-90
2022/05/21 06:43:27;;;;;;;32.77;30.07;;;;;;;;;;5034465;28;20915;-92
2022/05/21 06:45:55;;;;;;;31.80;29.20;;;;;;;;;;5034303;28;20460;-91
2022/05/21 06:48:22;;;;;;;33.60;30.43;;;;;;;;;;5034140;28;20483;-84
2022/05/21 06:50:49;;;;;;;30.60;28.43;;;;;;;;;;5032810;28;20545;-79
2022/05/21 06:53:17;;;;;;;29.87;27.67;;;;;;;;;;5033053;28;20440;-79
2022/05/21 06:55:44;;;;;;;29.57;27.10;;;;;;;;;;5033009;28;20451;-79
2022/05/21 06:58:11;;;;;;;30.60;27.97;;;;;;;;;;5033005;28;20440;-80
2022/05/21 07:00:40;;;;;;;28.83;26.60;;;;;;;;;;5032950;28;20494;-79
2022/05/21 07:03:08;;;;;;;31.67;29.17;;;;;;;;;;5032267;28;20754;-79
2022/05/21 07:08:22;;;;;;;26.87;24.47;;;;;;;;;;5032591;28;20402;-79
2022/05/21 07:10:49;;;;;;;29.33;27.07;;;;;;;;;;5032874;28;20484;-86
2022/05/21 07:13:17;;;;;;;31.10;28.33;;;;;;;;;;5014247;28;20436;-85
2022/05/21 07:15:47;;;;;;;28.83;26.60;;;;;;;;;;5014222;28;20461;-87
2022/05/21 07:18:17;;;;;;;30.23;27.63;;;;;;;;;;5014219;28;20538;-88
2022/05/21 07:20:45;;;;;;;30.60;28.00;;;;;;;;;;5014000;28;20451;-81
2022/05/21 07:23:12;;;;;;;27.37;25.10;;;;;;;;;;5012859;28;20472;-80
2022/05/21 07:25:40;;;;;;;28.00;25.90;;;;;;;;;;4995051;28;20833;-83
2022/05/21 07:28:08;;;;;;;25.70;23.90;;;;;;;;;;5012799;28;20451;-81
2022/05/21 07:30:36;;;;;;;26.97;25.10;;;;;;;;;;5013136;28;20563;-83
2022/05/21 07:33:06;;;;;;;26.77;24.87;;;;;;;;;;5013201;28;20431;-85
2022/05/21 07:35:36;;;;;;;25.07;23.27;;;;;;;;;;5016132;28;20408;-83
2022/05/21 07:38:03;;;;;;;26.80;24.70;;;;;;;;;;5017039;28;20435;-82
2022/05/21 07:40:31;;;;;;;28.27;26.07;;;;;;;;;;5017137;28;20432;-82
2022/05/21 07:42:58;;;;;;;26.30;24.50;;;;;;;;;;5017030;28;20766;-83
2022/05/21 07:48:10;;;;;;;25.97;23.93;;;;;;;;;;4975385;28;20436;-83
2022/05/21 07:50:40;;;;;;;25.20;23.20;;;;;;;;;;4975640;28;20578;-81
2022/05/21 07:53:10;;;;;;;25.73;23.27;;;;;;;;;;4975527;28;20433;-83
2022/05/21 07:55:37;;;;;;;23.40;21.60;;;;;;;;;;4975495;28;20534;-83
2022/05/21 07:58:05;;;;;;;24.50;23.00;;;;;;;;;;4975789;28;20462;-87
2022/05/21 08:00:32;;;;;;;25.40;23.40;;;;;;;;;;4976072;28;20418;-86
2022/05/21 08:02:59;;;;;;;25.47;23.77;;;;;;;;;;4976401;28;20466;-83
2022/05/21 08:05:29;;;;;;;24.50;22.80;;;;;;;;;;4975510;28;20416;-84
2022/05/21 08:07:56;;;;;;;25.30;23.70;;;;;;;;;;4976013;28;20457;-85
2022/05/21 08:10:24;;;;;;;26.27;24.30;;;;;;;;;;4959162;28;20851;-82
2022/05/21 08:12:52;;;;;;;26.20;24.57;;;;;;;;;;4975390;28;20429;-83
2022/05/21 08:15:20;;;;;;;25.60;23.67;;;;;;;;;;4975265;28;20931;-83
2022/05/21 08:17:47;;;;;;;26.10;24.30;;;;;;;;;;4975691;28;20414;-82
2022/05/21 08:20:15;;;;;;;24.50;22.80;;;;;;;;;;5015877;28;20457;-80
2022/05/21 08:28:14;;;;;;;28.77;26.60;;;;;;;;;;5016419;28;20973;-83
2022/05/21 08:30:42;;;;;;;28.00;26.07;;;;;;;;;;5016266;28;20441;-83
2022/05/21 08:33:09;;;;;;;25.10;23.30;;;;;;;;;;5016323;28;20437;-85
2022/05/21 08:35:39;;;;;;;28.63;26.60;;;;;;;;;;5016031;28;20452;-83
2022/05/21 08:38:08;;;;;;;28.20;26.00;;;;;;;;;;5016195;28;20492;-84
2022/05/21 08:40:40;;;;;;;29.40;27.07;;;;;;;;;;5015821;28;20436;-82
2022/05/21 08:43:12;;;;;;;27.27;24.80;;;;;;;;;;4998346;28;20428;-82
2022/05/21 08:45:46;;;;;;;25.53;23.47;;;;;;;;;;5016651;28;20412;-76
2022/05/21 08:48:13;;;;;;;28.43;26.03;;;;;;;;;;5016481;28;20456;-86
2022/05/21 08:50:43;;;;;;;26.70;24.90;;;;;;;;;;5016634;28;20412;-86
2022/05/21 08:53:15;;;;;;;26.83;24.80;;;;;;;;;;5016887;28;20423;-85
2022/05/21 08:55:46;;;;;;;28.93;26.73;;;;;;;;;;5016611;28;20453;-85
2022/05/21 08:58:16;;;;;;;27.63;25.90;;;;;;;;;;5016733;28;20504;-85
2022/05/21 09:00:45;;;;;;;26.57;24.70;;;;;;;;;;5016564;28;20751;-86
2022/05/21 09:03:13;;;;;;;25.67;23.97;;;;;;;;;;5016403;28;20444;-87
2022/05/21 09:05:44;;;;;;;27.73;25.50;;;;;;;;;;5016461;28;20429;-86
2022/05/21 09:08:16;;;;;;;27.03;25.00;;;;;;;;;;5016582;28;20433;-86
2022/05/21 09:10:49;;;;;;;27.47;25.07;;;;;;;;;;5016191;28;20451;-87
2022/05/21 09:13:19;;;;;;;26.23;24.33;;;;;;;;;;5016347;28;20441;-85
2022/05/21 09:18:32;;;;;;;24.43;22.43;;;;;;;;;;5016428;28;20919;-85
2022/05/21 09:21:01;;;;;;;25.97;24.30;;;;;;;;;;5015967;28;20489;-86
2022/05/21 09:23:46;;;;;;;25.30;23.50;;;;;;;;;;5016725;28;20437;-87
2022/05/21 09:26:14;;;;;;;26.67;24.97;;;;;;;;;;4998763;28;20818;-89
2022/05/21 09:28:41;;;;;;;24.57;22.97;;;;;;;;;;5015962;28;20435;-86
2022/05/21 09:31:09;;;;;;;26.20;24.37;;;;;;;;;;5016004;28;20568;-86
2022/05/21 09:33:38;;;;;;;24.93;23.30;;;;;;;;;;5015891;28;20424;-86
2022/05/21 09:36:06;;;;;;;25.10;23.50;;;;;;;;;;5015917;28;20479;-86
2022/05/21 09:38:36;;;;;;;24.50;22.90;;;;;;;;;;4997972;28;20424;-84
2022/05/21 09:41:11;;;;;;;29.03;26.53;;;;;;;;;;5015392;28;20442;-85
2022/05/21 09:46:26;;;;;;;24.87;23.27;;;;;;;;;;5015517;28;20427;-86
2022/05/21 09:48:55;;;;;;;26.10;24.17;;;;;;;;;;5015422;28;20560;-86
2022/05/21 09:51:27;;;;;;;28.23;26.43;;;;;;;;;;5015733;28;20480;-84
2022/05/21 09:53:54;;;;;;;26.97;25.17;;;;;;;;;;5015381;28;20419;-86
2022/05/21 09:56:24;;;;;;;27.23;25.47;;;;;;;;;;5014770;28;20430;-83
2022/05/21 09:58:53;;;;;;;24.90;23.20;;;;;;;;;;5014768;28;20452;-86
2022/05/21 10:01:36;;;;;;;25.87;24.07;;;;;;;;;;5015254;28;20423;-86
2022/05/21 10:04:11;;;;;;;25.73;23.80;;;;;;;;;;5015148;28;20467;-85
2022/05/21 10:06:42;;;;;;;26.47;24.87;;;;;;;;;;5015675;28;20427;-86
2022/05/21 10:12:00;;;;;;;25.70;23.73;;;;;;;;;;5015151;28;20499;-87
2022/05/21 10:14:29;;;;;;;22.47;20.97;;;;;;;;;;5015125;28;20522;-86
2022/05/21 10:16:59;;;;;;;24.97;23.47;;;;;;;;;;5014990;28;20768;-85
2022/05/21 10:19:32;;;;;;;22.30;20.70;;;;;;;;;;5014733;28;20442;-87
2022/05/21 10:22:03;;;;;;;24.10;22.50;;;;;;;;;;5014910;28;20528;-85
2022/05/21 10:24:37;;;;;;;22.60;21.30;;;;;;;;;;5015450;28;20445;-85
2022/05/21 10:27:09;;;;;;;25.83;23.87;;;;;;;;;;5015474;28;20411;-85
2022/05/21 10:29:45;;;;;;;25.70;23.80;;;;;;;;;;5015092;28;20791;-85
2022/05/21 10:32:18;;;;;;;26.07;24.17;;;;;;;;;;5015173;28;20944;-85
2022/05/21 10:34:51;;;;;;;25.23;23.60;;;;;;;;;;5014803;28;20476;-85
2022/05/21 10:37:29;;;;;;;24.97;23.47;;;;;;;;;;4997355;28;20792;-85
2022/05/21 10:40:07;;;;;;;25.60;23.90;;;;;;;;;;5014559;28;20403;-86
2022/05/21 10:42:50;;;;;;;23.00;21.60;;;;;;;;;;4997180;28;20778;-85
2022/05/21 10:45:21;;;;;;;23.93;22.10;;;;;;;;;;4997031;28;20551;-85
2022/05/21 10:48:09;;;;;;;24.37;22.77;;;;;;;;;;5014323;28;20468;-85
2022/05/21 10:50:40;;;;;;;22.13;20.83;;;;;;;;;;5014702;28;20467;-86
2022/05/21 10:53:23;;;;;;;24.83;22.93;;;;;;;;;;5014190;28;20945;-86
2022/05/21 10:55:57;;;;;;;23.80;22.23;;;;;;;;;;5014592;28;20412;-86
2022/05/21 10:58:40;;;;;;;24.50;22.90;;;;;;;;;;5014333;28;20430;-85
2022/05/21 11:01:14;;;;;;;23.53;21.77;;;;;;;;;;5014396;28;20419;-85
2022/05/21 11:03:45;;;;;;;22.07;20.77;;;;;;;;;;5014378;28;20498;-87
2022/05/21 11:06:20;;;;;;;23.40;21.90;;;;;;;;;;5014373;28;20499;-86
2022/05/21 11:08:53;;;;;;;25.10;23.27;;;;;;;;;;5013672;28;20448;-85
2022/05/21 11:11:26;;;;;;;26.53;24.80;;;;;;;;;;5014421;28;20430;-86
2022/05/21 11:13:58;;;;;;;24.70;22.93;;;;;;;;;;5014409;28;20419;-85
2022/05/21 11:16:29;;;;;;;23.57;21.97;;;;;;;;;;5014337;28;20527;-86
2022/05/21 11:19:00;;;;;;;24.50;22.50;;;;;;;;;;5014154;28;20442;-85
2022/05/21 11:21:30;;;;;;;23.80;21.87;;;;;;;;;;5014014;28;20502;-85
2022/05/21 11:23:59;;;;;;;23.63;22.10;;;;;;;;;;5014271;28;20415;-81
2022/05/21 11:26:31;;;;;;;22.37;21.03;;;;;;;;;;5013598;28;20416;-91
2022/05/21 11:29:00;;;;;;;24.17;22.57;;;;;;;;;;5014886;28;20440;-90
2022/05/21 11:39:57;;;;;;;25.90;24.00;;;;;;;;;;4935086;29;20532;-90
2022/05/21 11:42:25;;;;;;;24.37;22.87;;;;;;;;;;4934911;29;20482;-89
2022/05/21 11:44:55;;;;;;;25.37;23.77;;;;;;;;;;4934877;29;20420;-88
2022/05/21 11:47:33;;;;;;;25.63;23.87;;;;;;;;;;4934819;29;20473;-90
2022/05/21 11:50:07;;;;;;;25.27;23.50;;;;;;;;;;4934840;29;20453;-88
2022/05/21 11:52:47;;;;;;;25.17;23.37;;;;;;;;;;4934871;29;20489;-89
2022/05/21 11:55:19;;;;;;;23.63;22.13;;;;;;;;;;4934553;29;20415;-88
2022/05/21 11:57:47;;;;;;;23.43;22.03;;;;;;;;;;4934885;29;20998;-90
2022/05/21 12:00:29;;;;;;;26.50;24.70;;;;;;;;;;4934350;29;20441;-90
2022/05/21 12:06:07;;;;;;;25.60;23.50;;;;;;;;;;5111766;27;20546;-89
2022/05/21 12:08:39;;;;;;;25.77;24.20;;;;;;;;;;5112300;28;20857;-90
2022/05/21 12:11:10;;;;;;;25.20;23.30;;;;;;;;;;5111887;28;20416;-90
2022/05/21 12:13:50;;;;;;;22.00;20.70;;;;;;;;;;5112050;28;20811;-89
2022/05/21 12:16:36;;;;;;;23.83;22.43;;;;;;;;;;5112126;28;20440;-89
2022/05/21 12:19:05;;;;;;;26.30;24.13;;;;;;;;;;5111806;28;20428;-88
2022/05/21 12:21:51;;;;;;;25.33;23.67;;;;;;;;;;5111874;28;20433;-89
2022/05/21 12:24:36;;;;;;;25.97;24.07;;;;;;;;;;5112026;28;20484;-89
2022/05/21 12:27:05;;;;;;;24.43;22.83;;;;;;;;;;5111533;28;20440;-89
2022/05/21 12:29:33;;;;;;;26.80;24.87;;;;;;;;;;5111547;28;20432;-89
2022/05/21 12:32:02;;;;;;;25.93;24.23;;;;;;;;;;5110490;28;20856;-89
2022/05/21 12:34:35;;;;;;;24.40;21.97;;;;;;;;;;5111706;28;20461;-89
2022/05/21 12:37:08;;;;;;;25.03;23.23;;;;;;;;;;5111730;28;20419;-89
2022/05/21 12:39:43;;;;;;;25.60;23.80;;;;;;;;;;5111537;28;20437;-88
2022/05/21 12:42:14;;;;;;;25.03;23.13;;;;;;;;;;5110533;28;20452;-89
2022/05/21 12:44:45;;;;;;;24.93;23.23;;;;;;;;;;5111455;28;20476;-90
2022/05/21 12:47:13;;;;;;;25.73;23.87;;;;;;;;;;5111807;28;20548;-90
2022/05/21 12:49:47;;;;;;;25.07;23.30;;;;;;;;;;5111360;28;20437;-89
2022/05/21 12:52:21;;;;;;;25.63;24.03;;;;;;;;;;5111389;28;20441;-88
2022/05/21 12:54:50;;;;;;;26.67;24.70;;;;;;;;;;5112567;28;20432;-88
2022/05/21 12:57:26;;;;;;;27.03;24.93;;;;;;;;;;5111880;28;20435;-96
2022/05/21 13:00:04;;;;;;;25.10;23.20;;;;;;;;;;5111338;28;20415;-88
2022/05/21 13:02:40;;;;;;;25.90;24.03;;;;;;;;;;5111075;27;20513;-88
2022/05/21 13:05:08;;;;;;;24.60;23.10;;;;;;;;;;5110684;28;20574;-88
2022/05/21 13:07:39;;;;;;;24.27;22.57;;;;;;;;;;5110884;28;20479;-88
2022/05/21 13:10:15;;;;;;;25.13;22.80;;;;;;;;;;5110990;28;20773;-88
2022/05/21 13:12:45;;;;;;;25.40;23.47;;;;;;;;;;5111097;28;20433;-89
2022/05/21 13:15:13;;;;;;;25.37;23.37;;;;;;;;;;5108347;28;20495;-89
2022/05/21 13:17:46;;;;;;;24.13;22.43;;;;;;;;;;5097576;28;20507;-89
2022/05/21 13:20:16;;;;;;;24.20;22.47;;;;;;;;;;5097556;28;20444;-89
2022/05/21 13:22:59;;;;;;;23.53;21.80;;;;;;;;;;5097443;28;20438;-89
2022/05/21 13:25:28;;;;;;;24.20;22.23;;;;;;;;;;5097031;28;21016;-89
2022/05/21 13:27:57;;;;;;;21.30;19.97;;;;;;;;;;5097335;28;20973;-89
2022/05/21 13:30:29;;;;;;;24.87;22.97;;;;;;;;;;5095645;28;20457;-89
2022/05/21 13:32:58;;;;;;;22.37;21.00;;;;;;;;;;5096464;28;20996;-90
2022/05/21 13:35:28;;;;;;;21.80;20.50;;;;;;;;;;5096713;28;20938;-88
2022/05/21 13:37:56;;;;;;;23.10;21.60;;;;;;;;;;5097065;28;20448;-89
2022/05/21 13:40:25;;;;;;;23.10;21.50;;;;;;;;;;5096679;28;20533;-89
2022/05/21 13:42:55;;;;;;;23.30;21.67;;;;;;;;;;5097274;28;20550;-89
2022/05/21 13:45:26;;;;;;;23.40;21.90;;;;;;;;;;5096854;28;20485;-89
2022/05/21 13:47:54;;;;;;;22.27;21.07;;;;;;;;;;5087458;28;20548;-85
2022/05/21 13:50:24;;;;;;;23.60;22.00;;;;;;;;;;5076603;28;20450;-84
2022/05/21 13:52:51;;;;;;;23.37;21.70;;;;;;;;;;5076006;28;20445;-88
2022/05/21 13:55:19;;;;;;;23.20;21.50;;;;;;;;;;5076601;28;20424;-89
2022/05/21 13:57:46;;;;;;;22.63;21.23;;;;;;;;;;5078012;28;20557;-87
2022/05/21 14:00:29;;;;;;;21.77;20.57;;;;;;;;;;5075791;28;20442;-89
2022/05/21 14:02:57;;;;;;;22.43;20.93;;;;;;;;;;5075772;28;20413;-84
2022/05/21 14:05:27;;;;;;;22.30;20.87;;;;;;;;;;5074021;28;20525;-85
2022/05/21 14:07:56;;;;;;;22.70;21.13;;;;;;;;;;5075239;28;20446;-84
2022/05/21 14:10:35;;;;;;;21.37;20.07;;;;;;;;;;5075255;28;20420;-85
2022/05/21 14:13:05;;;;;;;23.07;21.70;;;;;;;;;;5075542;28;20477;-85
2022/05/21 14:15:38;;;;;;;23.63;21.90;;;;;;;;;;5075257;28;20481;-85
2022/05/21 14:18:06;;;;;;;22.97;21.37;;;;;;;;;;5075424;28;20431;-85
2022/05/21 14:20:35;;;;;;;24.67;22.87;;;;;;;;;;5075348;28;20442;-85
2022/05/21 14:23:21;;;;;;;22.40;20.90;;;;;;;;;;5075357;28;20427;-84
2022/05/21 14:25:48;;;;;;;23.53;21.93;;;;;;;;;;5075043;28;20488;-85
2022/05/21 14:28:23;;;;;;;22.10;20.67;;;;;;;;;;5074874;28;20534;-85
2022/05/21 14:30:53;;;;;;;20.80;19.50;;;;;;;;;;5075042;28;20446;-85
2022/05/21 14:33:23;;;;;;;22.03;20.40;;;;;;;;;;5075025;28;20434;-85
2022/05/21 14:35:52;;;;;;;22.20;20.77;;;;;;;;;;5074684;28;20487;-84
2022/05/21 14:38:21;;;;;;;22.93;21.50;;;;;;;;;;5074817;28;20430;-84
2022/05/21 14:40:51;;;;;;;23.17;21.50;;;;;;;;;;5074958;28;20495;-84
2022/05/21 14:43:21;;;;;;;21.53;20.20;;;;;;;;;;5073365;28;20880;-85
2022/05/21 14:45:48;;;;;;;23.13;21.50;;;;;;;;;;5074591;28;20552;-85
2022/05/21 14:48:16;;;;;;;23.00;21.30;;;;;;;;;;5074518;28;20456;-84
2022/05/21 14:53:31;;;;;;;23.40;21.70;;;;;;;;;;5074572;28;20415;-86
2022/05/21 14:55:59;;;;;;;22.73;21.33;;;;;;;;;;5074736;28;20462;-85
2022/05/21 14:58:27;;;;;;;23.07;21.20;;;;;;;;;;5074698;28;20924;-85
2022/05/21 15:00:54;;;;;;;24.33;22.20;;;;;;;;;;5074781;28;20839;-86
2022/05/21 15:03:23;;;;;;;24.23;22.30;;;;;;;;;;5074409;28;20445;-86
2022/05/21 15:05:51;;;;;;;24.20;22.67;;;;;;;;;;5071091;28;20505;-85
2022/05/21 15:08:21;;;;;;;24.47;22.67;;;;;;;;;;5074635;28;20442;-86
2022/05/21 15:10:49;;;;;;;25.17;23.27;;;;;;;;;;5074237;28;20431;-86
2022/05/21 15:13:18;;;;;;;25.07;23.50;;;;;;;;;;5074253;28;20451;-86
2022/05/21 15:15:45;;;;;;;23.83;22.33;;;;;;;;;;5074436;28;20426;-86
2022/05/21 15:18:12;;;;;;;25.03;23.20;;;;;;;;;;5073362;28;20438;-86